createdAt,value
2019-04-25T00:01:03.303Z,8.55
2019-04-25T00:03:33.419Z,6.30
2019-04-25T00:06:02.371Z,6.55
2019-04-25T00:08:31.185Z,11.70
2019-04-25T00:11:01.634Z,6.97
2019-04-25T00:13:31.734Z,6.50
2019-04-25T00:16:01.725Z,7.50
2019-04-25T08:02:25.299Z,2.12
2019-04-25T08:04:54.367Z,4.75
2019-04-25T08:07:24.106Z,3.45
2019-04-25T08:09:54.081Z,4.70
2019-04-25T08:12:22.582Z,6.12
2019-04-25T08:14:54.185Z,4.05
2019-04-25T08:17:40.661Z,18.20
2019-04-25T08:20:09.051Z,11.10
2019-04-25T08:22:50.293Z,9.25
2019-04-25T08:25:07.658Z,12.78
2019-04-25T08:27:36.747Z,9.70
2019-04-25T08:30:06.004Z,4.33
2019-04-25T08:32:35.505Z,11.28
2019-04-25T08:35:05.587Z,7.75
2019-04-25T08:37:35.193Z,5.65
2019-04-25T08:40:05.408Z,8.88
2019-04-25T08:42:35.480Z,7.58
2019-04-25T08:45:05.607Z,7.85
2019-04-25T08:47:35.784Z,9.73
2019-04-25T08:50:26.322Z,7.95
2019-04-25T08:52:44.335Z,11.05
2019-04-25T08:55:31.355Z,14.85
2019-04-25T08:58:05.038Z,12.37
2019-04-25T09:00:59.277Z,26.57
2019-04-25T09:03:26.256Z,11.22
2019-04-25T09:05:54.658Z,6.45
2019-04-25T09:08:24.073Z,11.63
2019-04-25T09:10:53.463Z,12.03
2019-04-25T09:13:23.155Z,8.25
2019-04-25T09:15:53.918Z,9.18
2019-04-25T09:18:23.871Z,9.25
2019-04-25T09:20:53.994Z,10.68
2019-04-25T09:23:23.575Z,21.75
2019-04-25T09:25:52.216Z,10.80
2019-04-25T09:28:20.608Z,12.10
2019-04-25T09:30:48.994Z,15.55
2019-04-25T09:33:17.387Z,21.10
2019-04-25T09:35:46.081Z,36.13
2019-04-25T09:38:14.481Z,22.05
2019-04-25T09:40:44.489Z,29.55
2019-04-25T09:43:13.629Z,26.93
2019-04-25T09:45:49.926Z,34.25
2019-04-25T09:48:19.968Z,12.85
2019-04-25T09:50:50.021Z,11.33
2019-04-25T09:53:23.595Z,10.72
2019-04-25T09:55:54.304Z,10.78
2019-04-25T09:58:26.762Z,12.13
2019-04-25T10:00:56.786Z,7.37
2019-04-25T10:03:25.188Z,14.30
2019-04-25T10:05:53.582Z,9.85
2019-04-25T10:08:22.111Z,8.53
2019-04-25T10:10:50.509Z,8.08
2019-04-25T10:13:18.910Z,7.72
2019-04-25T10:15:50.558Z,5.08
2019-04-25T10:18:18.951Z,7.78
2019-04-25T10:20:47.554Z,10.08
2019-04-25T10:23:15.937Z,8.90
2019-04-25T10:25:45.125Z,10.53
2019-04-25T10:28:13.592Z,14.70
2019-04-25T10:30:42.888Z,8.93
2019-04-25T10:33:11.560Z,9.28
2019-04-25T10:35:48.169Z,6.92
2019-04-25T10:38:10.000Z,16.05
2019-04-25T10:40:39.284Z,5.78
2019-04-25T10:43:07.960Z,13.70
2019-04-25T10:45:36.629Z,8.40
2019-04-25T10:48:05.024Z,8.70
2019-04-25T10:50:34.114Z,9.95
2019-04-25T10:53:04.021Z,11.90
2019-04-25T10:55:33.244Z,10.78
2019-04-25T10:58:01.753Z,10.13
2019-04-25T11:00:31.801Z,6.97
2019-04-25T11:03:01.850Z,12.50
2019-04-25T11:05:30.244Z,8.90
2019-04-25T11:07:58.641Z,11.73
2019-04-25T11:10:27.035Z,7.20
2019-04-25T11:12:55.452Z,11.85
2019-04-25T11:15:23.887Z,12.00
2019-04-25T11:17:54.143Z,10.45
2019-04-25T11:20:30.386Z,9.10
2019-04-25T11:22:58.801Z,9.20
2019-04-25T11:25:27.184Z,8.85
2019-04-25T11:27:55.599Z,10.03
2019-04-25T11:30:25.859Z,6.37
2019-04-25T11:32:54.742Z,8.90
2019-04-25T11:35:24.146Z,4.53
2019-04-25T11:37:54.870Z,3.95
2019-04-25T11:40:27.977Z,3.55
2019-04-25T11:42:56.468Z,4.60
2019-04-25T11:45:24.909Z,3.45
2019-04-25T11:47:54.388Z,8.30
2019-04-25T11:50:23.630Z,10.80
2019-04-25T11:52:53.101Z,13.88
2019-04-25T11:55:23.779Z,11.60
2019-04-25T11:57:53.191Z,10.82
2019-04-25T12:00:24.455Z,11.00
2019-04-25T12:02:54.609Z,13.32
2019-04-25T12:05:23.540Z,12.93
2019-04-25T12:07:52.992Z,12.78
2019-04-25T12:10:24.069Z,15.78
2019-04-25T12:12:53.732Z,11.60
2019-04-25T12:15:23.957Z,15.28
2019-04-25T12:17:52.229Z,13.20
2019-04-25T12:20:20.619Z,9.35
2019-04-25T12:22:49.043Z,8.20
2019-04-25T12:25:17.443Z,11.80
2019-04-25T12:27:48.663Z,9.23
2019-04-25T12:30:15.890Z,9.73
2019-04-25T12:32:44.302Z,13.55
2019-04-25T12:35:14.250Z,11.53
2019-04-25T12:37:44.191Z,8.15
2019-04-25T12:40:14.041Z,9.38
2019-04-25T12:42:44.364Z,8.73
2019-04-25T12:45:26.557Z,10.13
2019-04-25T12:47:57.982Z,9.75
2019-04-25T12:50:26.740Z,7.80
2019-04-25T12:52:56.077Z,8.70
2019-04-25T12:55:24.476Z,8.35
2019-04-25T12:57:54.888Z,10.93
2019-04-25T13:00:24.573Z,8.95
2019-04-25T13:02:54.011Z,9.80
2019-04-25T13:05:24.305Z,9.50
2019-04-25T13:07:56.657Z,8.83
2019-04-25T13:10:23.612Z,6.78
2019-04-25T13:12:55.284Z,7.92
2019-04-25T13:15:23.457Z,10.28
2019-04-25T13:17:53.633Z,10.43
2019-04-25T13:20:22.059Z,12.10
2019-04-25T13:22:50.464Z,6.85
2019-04-25T13:25:20.503Z,7.55
2019-04-25T13:28:08.767Z,7.08
2019-04-25T13:31:04.291Z,7.08
2019-04-25T13:33:35.829Z,9.98
2019-04-25T13:36:15.112Z,10.00
2019-04-25T13:38:43.622Z,6.70
2019-04-25T13:41:13.642Z,11.05
2019-04-25T13:43:42.090Z,12.90
2019-04-25T13:46:11.128Z,4.28
2019-04-25T13:48:40.590Z,5.97
2019-04-25T13:51:08.973Z,7.67
2019-04-25T13:53:37.394Z,7.60
2019-04-25T13:56:07.046Z,5.17
2019-04-25T13:58:35.430Z,6.35
2019-04-25T14:01:12.709Z,8.15
2019-04-25T14:03:35.690Z,6.37
2019-04-25T14:06:04.805Z,8.43
2019-04-25T14:08:33.590Z,5.33
2019-04-25T14:11:05.000Z,9.73
2019-04-25T14:13:32.212Z,6.03
2019-04-25T14:16:18.372Z,5.62
2019-04-25T14:18:57.304Z,4.83
2019-04-25T14:21:26.111Z,4.12
2019-04-25T14:23:55.405Z,4.72
2019-04-25T14:26:23.797Z,8.18
2019-04-25T14:28:52.175Z,5.25
2019-04-25T14:31:35.169Z,6.83
2019-04-25T14:33:51.762Z,4.35
2019-04-25T14:36:20.215Z,3.67
2019-04-25T14:38:48.599Z,5.72
2019-04-25T14:41:16.996Z,3.70
2019-04-25T14:43:46.479Z,6.35
2019-04-25T14:46:14.968Z,5.17
2019-04-25T14:48:43.373Z,4.95
2019-04-25T14:51:11.761Z,6.17
2019-04-25T14:53:40.169Z,3.95
2019-04-25T14:56:10.195Z,5.83
2019-04-25T14:58:40.278Z,4.25
2019-04-25T15:01:08.690Z,3.22
2019-04-25T15:03:37.084Z,6.58
2019-04-25T15:06:05.467Z,2.98
2019-04-25T15:08:33.877Z,7.10
2019-04-25T15:11:02.556Z,5.45
2019-04-25T15:13:31.798Z,4.05
2019-04-25T15:16:00.553Z,3.92
2019-04-25T15:18:29.020Z,5.12
2019-04-25T15:20:57.415Z,4.67
2019-04-25T15:23:25.818Z,4.17
2019-04-25T15:25:54.213Z,4.70
2019-04-25T15:28:24.391Z,3.40
2019-04-25T15:30:53.282Z,2.70
2019-04-25T15:33:21.706Z,4.30
2019-04-25T15:35:51.753Z,3.00
2019-04-25T15:38:21.786Z,3.98
2019-04-25T15:41:04.168Z,2.02
2019-04-25T15:43:39.939Z,3.27
2019-04-25T15:46:09.963Z,4.45
2019-04-25T15:48:38.614Z,4.67
2019-04-25T15:51:07.037Z,3.92
2019-04-25T15:53:35.498Z,1.95
2019-04-25T15:56:03.910Z,2.25
2019-04-25T15:58:32.386Z,2.67
2019-04-25T16:01:00.748Z,3.80
2019-04-25T16:03:29.140Z,2.02
2019-04-25T16:05:57.527Z,3.47
2019-04-25T16:08:26.622Z,2.15
2019-04-25T16:10:56.055Z,1.70
2019-04-25T16:13:24.454Z,1.07
2019-04-25T16:15:52.826Z,1.02
2019-04-25T16:18:21.239Z,2.75
2019-04-25T16:20:49.623Z,3.40
2019-04-25T16:23:18.138Z,2.95
2019-04-25T16:25:46.522Z,2.35
2019-04-25T16:28:14.941Z,5.47
2019-04-25T16:30:43.327Z,3.60
2019-04-25T16:33:11.740Z,2.72
2019-04-25T16:35:40.123Z,7.75
2019-04-25T16:38:09.215Z,3.83
2019-04-25T16:40:37.590Z,3.22
2019-04-25T16:43:07.651Z,3.77
2019-04-25T16:45:37.779Z,2.50
2019-04-25T16:48:06.296Z,2.37
2019-04-25T16:50:35.055Z,2.02
2019-04-25T16:53:03.472Z,1.87
2019-04-25T16:55:31.854Z,3.65
2019-04-25T16:58:00.272Z,4.20
2019-04-25T17:00:42.596Z,2.15
2019-04-25T17:03:12.088Z,2.25
2019-04-25T17:05:40.728Z,1.87
2019-04-25T17:08:09.303Z,1.77
2019-04-25T17:10:37.704Z,5.50
2019-04-25T17:13:06.824Z,2.27
2019-04-25T17:15:36.847Z,1.87
2019-04-25T17:18:25.179Z,2.60
2019-04-25T17:21:04.075Z,5.90
2019-04-25T17:23:32.630Z,4.25
2019-04-25T17:26:01.087Z,2.20
2019-04-25T17:28:31.394Z,3.35
2019-04-25T17:31:18.016Z,2.58
2019-04-25T17:34:04.283Z,1.87
2019-04-25T17:36:40.786Z,1.75
2019-04-25T17:39:26.889Z,2.12
2019-04-25T17:41:55.271Z,2.02
2019-04-25T17:44:23.728Z,2.10
2019-04-25T17:46:52.113Z,3.83
2019-04-25T17:49:20.529Z,3.30
2019-04-25T17:51:48.926Z,2.60
2019-04-25T17:54:18.566Z,2.40
2019-04-25T17:56:47.527Z,1.27
2019-04-25T17:59:15.945Z,0.65
2019-04-25T18:01:44.377Z,2.60
2019-04-25T18:04:12.821Z,2.95
2019-04-25T18:06:42.007Z,4.08
2019-04-25T18:09:10.533Z,1.90
2019-04-25T18:11:38.920Z,2.77
2019-04-25T18:14:07.322Z,3.33
2019-04-25T18:16:40.382Z,2.70
2019-04-25T18:19:10.516Z,7.85
2019-04-25T18:21:38.919Z,4.90
2019-04-25T18:24:23.968Z,2.70
2019-04-25T18:26:56.651Z,4.67
2019-04-25T18:29:26.720Z,3.62
2019-04-25T18:31:55.170Z,2.30
2019-04-25T18:34:25.236Z,8.10
2019-04-25T18:37:07.895Z,1.90
2019-04-25T18:39:40.696Z,3.50
2019-04-25T18:42:13.524Z,6.17
2019-04-25T18:44:41.998Z,5.87
2019-04-25T18:47:10.409Z,5.55
2019-04-25T18:49:40.404Z,1.87
2019-04-25T18:52:10.511Z,2.22
2019-04-25T18:54:43.322Z,3.55
2019-04-25T18:57:31.338Z,4.53
2019-04-25T19:00:04.331Z,2.47
2019-04-25T19:02:40.275Z,5.22
2019-04-25T19:05:19.333Z,3.72
2019-04-25T19:07:47.724Z,2.02
2019-04-25T19:10:16.492Z,2.62
2019-04-25T19:12:45.192Z,2.85
2019-04-25T19:15:13.692Z,1.92
2019-04-25T19:17:43.206Z,2.08
2019-04-25T19:20:12.279Z,1.77
2019-04-25T19:22:41.487Z,4.80
2019-04-25T19:25:09.870Z,5.00
2019-04-25T19:27:38.255Z,1.15
2019-04-25T19:30:07.303Z,3.80
2019-04-25T19:32:35.692Z,2.12
2019-04-25T19:35:05.585Z,3.08
2019-04-25T19:37:33.968Z,1.55
2019-04-25T19:40:06.713Z,2.42
2019-04-25T19:42:36.734Z,2.37
2019-04-25T19:45:06.938Z,3.98
2019-04-25T19:47:35.325Z,5.37
2019-04-25T19:50:04.192Z,2.45
2019-04-25T19:52:32.583Z,2.55
2019-04-25T19:55:00.972Z,2.30
2019-04-25T19:57:29.359Z,2.05
2019-04-25T19:59:57.760Z,5.17
2019-04-25T20:02:39.560Z,4.72
2019-04-25T20:05:11.224Z,5.72
2019-04-25T20:07:43.732Z,6.08
2019-04-25T20:10:25.015Z,2.50
2019-04-25T20:12:55.001Z,5.47
2019-04-25T20:15:23.960Z,4.35
2019-04-25T20:17:52.335Z,2.00
2019-04-25T20:20:20.725Z,3.15
2019-04-25T20:22:50.202Z,2.37
2019-04-25T20:25:18.743Z,3.12
2019-04-25T20:27:47.144Z,5.35
2019-04-25T20:30:15.522Z,3.00
2019-04-25T20:32:44.741Z,3.15
2019-04-25T20:35:13.952Z,1.45
2019-04-25T20:37:42.341Z,2.40
2019-04-25T20:40:10.732Z,2.83
2019-04-25T20:42:39.116Z,5.47
2019-04-25T20:45:08.648Z,3.02
2019-04-25T20:47:37.074Z,1.70
2019-04-25T20:50:06.040Z,1.12
2019-04-25T20:52:34.447Z,2.05
2019-04-25T20:55:02.944Z,3.45
2019-04-25T20:57:31.345Z,2.55
2019-04-25T20:59:59.745Z,2.80
2019-04-25T21:02:28.129Z,5.72
2019-04-25T21:04:56.866Z,1.15
2019-04-25T21:07:25.255Z,2.85
2019-04-25T21:09:53.663Z,2.87
2019-04-25T21:12:22.093Z,2.62
2019-04-25T21:14:56.181Z,2.25
2019-04-25T21:17:29.485Z,1.65
2019-04-25T21:19:59.637Z,1.87
2019-04-25T21:22:28.139Z,1.42
2019-04-25T21:24:56.549Z,1.85
2019-04-25T21:27:25.026Z,2.40
2019-04-25T21:29:53.484Z,1.92
2019-04-25T21:32:23.444Z,1.32
2019-04-25T21:34:53.025Z,2.25
2019-04-25T21:37:21.879Z,2.50
2019-04-25T21:39:56.128Z,2.30
2019-04-25T21:42:26.799Z,1.70
2019-04-25T21:44:56.082Z,2.20
2019-04-25T21:47:24.642Z,3.08
2019-04-25T21:49:54.287Z,1.67
2019-04-25T21:52:23.223Z,2.27
2019-04-25T21:54:53.116Z,1.60
2019-04-25T21:57:21.796Z,2.62
2019-04-25T22:00:00.390Z,2.45
2019-04-25T22:02:21.067Z,1.50
2019-04-25T22:04:49.660Z,1.45
2019-04-25T22:07:18.870Z,3.25
2019-04-25T22:09:47.854Z,2.72
2019-04-25T22:12:16.635Z,2.45
2019-04-25T22:14:45.018Z,1.30
2019-04-25T22:17:13.699Z,2.02
2019-04-25T22:19:42.197Z,3.40
2019-04-25T22:22:11.036Z,1.72
2019-04-25T22:24:39.417Z,1.92
2019-04-25T22:27:09.446Z,1.67
2019-04-25T22:29:39.470Z,2.55
2019-04-25T22:32:24.882Z,1.17
2019-04-25T22:34:58.272Z,1.60
2019-04-25T22:37:27.085Z,2.27
2019-04-25T22:39:55.567Z,4.08
2019-04-25T22:42:23.946Z,1.98
2019-04-25T22:44:52.334Z,3.75
2019-04-25T22:47:20.724Z,2.80
2019-04-25T22:49:49.110Z,2.47
2019-04-25T22:52:19.318Z,3.27
2019-04-25T22:54:47.716Z,1.72
2019-04-25T22:57:16.399Z,1.35
2019-04-25T22:59:44.997Z,1.27
2019-04-25T23:02:15.019Z,3.55
2019-04-25T23:04:45.387Z,2.72
2019-04-25T23:07:14.536Z,1.47
2019-04-25T23:09:42.948Z,2.05
2019-04-25T23:12:11.734Z,1.67
2019-04-25T23:14:41.155Z,1.22
2019-04-25T23:17:09.675Z,1.32
2019-04-25T23:19:38.059Z,1.60
2019-04-25T23:22:07.340Z,1.15
2019-04-25T23:24:37.520Z,1.32
2019-04-25T23:27:10.476Z,2.02
2019-04-25T23:29:38.899Z,3.15
2019-04-25T23:32:09.049Z,1.42
2019-04-25T23:34:37.456Z,2.72
2019-04-25T23:37:06.199Z,1.32
2019-04-25T23:39:35.556Z,2.85
2019-04-25T23:42:03.948Z,1.92
2019-04-25T23:44:32.355Z,1.40
2019-04-25T23:47:00.737Z,1.55
2019-04-25T23:49:29.161Z,0.78
2019-04-25T23:51:57.743Z,2.92
2019-04-25T23:54:26.154Z,1.77
2019-04-25T23:56:56.342Z,2.22
2019-04-25T23:59:24.746Z,1.92
